Time;durP1;ratioP1;P1;durP2;ratioP2;P2;SDS_P1;SDS_P2;PMS_P1;PMS_P2;Temp;Humidity;BMP_temperature;BMP_pressure;BME280_temperature;BME280_humidity;BME280_pressure;Samples;Min_cycle;Max_cycle;Signal;HPM_P1;HPM_P2
2024/04/24 05:14:15;;;;;;;33.75;16.20;;;;;;;0.26;83.88;96005.84;2224529;26;20632;-66
2024/04/24 05:15:17;;;;;;;22.80;10.25;;;;;;;0.30;83.84;95999.78;2219143;26;20243;-68
2024/04/24 05:21:06;;;;;;;9.43;4.55;;;;;;;0.17;83.50;96006.00;2222592;26;20577;-67
2024/04/24 08:03:06;;;;;;;12.70;6.80;;;;;;;4.04;73.10;95921.09;2225382;26;21057;-63
2024/04/24 08:04:59;;;;;;;12.30;6.93;;;;;;;4.12;72.87;95913.09;2255992;25;20572;-63
2024/04/24 10:21:48;;;;;;;12.32;5.90;;;;;;;4.18;75.22;95858.66;2226087;26;20628;-66
2024/04/24 11:04:58;;;;;;;11.75;7.40;;;;;;;4.09;78.62;95852.88;2268041;25;20563;-66
2024/04/24 11:06:11;;;;;;;11.25;7.00;;;;;;;4.21;78.29;95843.03;2264612;25;20220;-65
2024/04/24 11:07:17;;;;;;;10.45;6.50;;;;;;;4.48;77.08;95845.59;2255161;26;20934;-66
2024/04/24 11:08:33;;;;;;;7.88;5.35;;;;;;;4.50;75.95;95842.06;2257372;26;20262;-66
2024/04/24 11:09:37;;;;;;;8.48;5.70;;;;;;;4.68;75.84;95848.34;2258612;26;20758;-66
2024/04/24 11:10:38;;;;;;;15.35;5.88;;;;;;;4.78;75.31;95835.97;2257981;26;20275;-66
2024/04/24 11:11:40;;;;;;;16.38;7.03;;;;;;;4.99;75.01;95846.44;2259430;26;20831;-66
2024/04/24 11:12:42;;;;;;;6.75;4.90;;;;;;;4.88;74.21;95847.69;2258535;26;20209;-67
2024/04/24 11:13:43;;;;;;;9.98;6.05;;;;;;;4.84;74.01;95837.50;2258078;26;20217;-66
2024/04/24 11:14:46;;;;;;;7.00;5.43;;;;;;;4.96;73.97;95833.63;2257654;26;20252;-68
2024/04/24 11:15:58;;;;;;;7.10;5.57;;;;;;;4.95;74.12;95835.41;2258209;26;20382;-68
2024/04/24 11:17:10;;;;;;;8.23;5.72;;;;;;;4.99;74.31;95836.09;2242913;26;20245;-68
2024/04/24 11:18:13;;;;;;;9.35;5.95;;;;;;;4.96;74.22;95834.47;2241657;26;20218;-68
2024/04/24 11:19:15;;;;;;;8.55;5.50;;;;;;;5.03;73.86;95835.13;2241242;26;20259;-68
2024/04/24 11:20:24;;;;;;;8.73;5.55;;;;;;;4.97;73.73;95833.56;2241749;26;20217;-68
2024/04/24 11:21:26;;;;;;;9.98;5.25;;;;;;;4.81;73.70;95835.88;2252088;26;20901;-68
2024/04/24 11:22:29;;;;;;;10.77;5.38;;;;;;;4.72;74.27;95837.03;2252136;26;20626;-68
2024/04/24 11:23:32;;;;;;;9.23;6.10;;;;;;;4.93;74.77;95834.59;2243326;26;20214;-68
2024/04/24 11:24:33;;;;;;;7.40;4.93;;;;;;;4.87;74.35;95832.22;2241116;26;20249;-68
2024/04/24 11:25:47;;;;;;;7.05;5.03;;;;;;;4.81;75.40;95833.28;2242060;26;20257;-68
2024/04/24 11:27:00;;;;;;;9.30;5.22;;;;;;;4.68;75.24;95830.25;2240597;26;20268;-68
2024/04/24 11:28:02;;;;;;;7.63;5.60;;;;;;;4.71;75.20;95830.16;2241084;26;20802;-68
2024/04/24 11:29:05;;;;;;;10.27;5.18;;;;;;;4.83;75.12;95828.88;2244538;26;20218;-68
2024/04/24 11:30:15;;;;;;;7.85;5.65;;;;;;;4.90;75.13;95826.91;2241826;26;20435;-68
2024/04/24 11:31:19;;;;;;;6.35;4.63;;;;;;;4.93;73.78;95828.56;2238956;26;20288;-68
2024/04/24 11:32:22;;;;;;;7.20;4.40;;;;;;;5.02;74.04;95829.06;2241380;26;20221;-68
2024/04/24 11:33:24;;;;;;;6.32;4.45;;;;;;;5.11;73.17;95820.16;2242872;26;20248;-68
2024/04/24 11:34:26;;;;;;;7.68;4.53;;;;;;;5.11;73.28;95821.91;2243217;26;20367;-68
2024/04/24 11:35:28;;;;;;;7.30;4.90;;;;;;;5.11;72.84;95819.31;2241209;26;20260;-68
2024/04/24 11:36:31;;;;;;;6.90;4.10;;;;;;;5.03;72.43;95815.25;2243289;26;20355;-68
2024/04/24 11:37:34;;;;;;;6.78;4.68;;;;;;;5.11;72.38;95814.13;2241814;26;20261;-68
2024/04/24 11:38:35;;;;;;;5.85;4.55;;;;;;;5.21;72.16;95823.25;2241169;26;20265;-68
2024/04/24 11:39:37;;;;;;;6.63;4.32;;;;;;;5.19;72.46;95809.50;2248419;26;20380;-68
2024/04/24 11:40:41;;;;;;;6.18;4.18;;;;;;;5.33;71.77;95812.44;2251554;26;20218;-68
2024/04/24 11:41:42;;;;;;;6.63;4.43;;;;;;;5.23;70.93;95809.34;2240574;26;20948;-68
2024/04/24 11:42:50;;;;;;;6.55;4.40;;;;;;;5.07;71.08;95811.63;2244211;26;20277;-68
2024/04/24 11:43:53;;;;;;;5.75;4.15;;;;;;;5.16;70.75;95820.81;2241278;26;20285;-68
2024/04/24 11:44:55;;;;;;;5.63;3.40;;;;;;;5.03;69.53;95807.47;2241424;26;20282;-68
2024/04/24 11:45:57;;;;;;;4.90;3.40;;;;;;;4.94;70.14;95805.22;2243905;26;20261;-68
2024/04/24 11:46:58;;;;;;;7.75;4.60;;;;;;;5.11;70.14;95803.78;2243434;26;20218;-68
2024/04/24 11:48:00;;;;;;;7.78;4.65;;;;;;;5.36;70.70;95807.16;2237514;26;20210;-68
2024/04/24 11:49:05;;;;;;;6.30;4.03;;;;;;;5.43;70.22;95801.75;2237805;26;20222;-68
2024/04/24 11:50:09;;;;;;;7.97;4.00;;;;;;;5.59;69.49;95805.44;2240625;26;20254;-68
2024/04/24 11:51:10;;;;;;;8.10;4.57;;;;;;;5.32;68.85;95815.94;2242455;26;20218;-68
2024/04/24 11:52:12;;;;;;;9.68;5.25;;;;;;;5.23;68.93;95808.50;2239755;26;20211;-68
2024/04/24 11:53:14;;;;;;;8.35;5.32;;;;;;;5.14;69.47;95804.53;2238128;26;20265;-68
2024/04/24 11:54:15;;;;;;;11.95;5.10;;;;;;;5.12;70.06;95805.47;2244680;26;20213;-68
2024/04/24 11:55:19;;;;;;;7.97;4.30;;;;;;;5.22;69.95;95805.06;2244556;26;20307;-68
2024/04/24 11:56:21;;;;;;;5.25;3.45;;;;;;;5.00;70.36;95799.84;2242311;26;20339;-68
2024/04/24 11:57:23;;;;;;;5.82;3.75;;;;;;;4.98;70.45;95793.03;2243641;26;20272;-68
2024/04/24 11:58:27;;;;;;;7.05;3.63;;;;;;;4.97;69.95;95797.34;2236147;26;20206;-68
2024/04/24 11:59:30;;;;;;;5.55;3.90;;;;;;;5.01;69.96;95792.91;2239935;26;20218;-68
2024/04/24 12:00:38;;;;;;;6.90;3.70;;;;;;;5.13;69.71;95792.47;2243115;26;20657;-68
2024/04/24 12:01:40;;;;;;;6.65;4.55;;;;;;;5.36;69.16;95793.38;2239803;26;20288;-68
2024/04/24 12:02:42;;;;;;;9.00;3.60;;;;;;;5.44;68.73;95787.91;2241310;26;20214;-68
2024/04/24 12:03:45;;;;;;;8.30;4.40;;;;;;;5.39;68.37;95788.06;2243764;26;20262;-68
2024/04/24 12:04:47;;;;;;;8.38;4.00;;;;;;;5.73;68.68;95791.94;2241634;26;20727;-68
2024/04/24 12:05:49;;;;;;;15.32;7.57;;;;;;;6.13;67.17;95786.94;2241169;26;20304;-68
2024/04/24 12:06:51;;;;;;;11.05;5.20;;;;;;;6.05;66.76;95788.09;2242090;26;20258;-68
2024/04/24 12:07:53;;;;;;;4.95;3.40;;;;;;;6.17;66.98;95784.19;2243393;26;20269;-68
2024/04/24 12:09:00;;;;;;;7.32;3.25;;;;;;;6.43;65.92;95790.03;2241485;26;20214;-68
2024/04/24 12:10:03;;;;;;;4.85;3.00;;;;;;;7.23;64.29;95790.09;2239507;26;20276;-68
2024/04/24 12:11:04;;;;;;;5.22;3.75;;;;;;;7.17;63.59;95786.00;2237940;26;20281;-67
2024/04/24 12:12:06;;;;;;;6.63;2.70;;;;;;;6.72;64.33;95790.56;2243492;26;20630;-68
2024/04/24 12:13:08;;;;;;;6.47;3.70;;;;;;;6.91;64.94;95788.00;2244429;26;20210;-68
2024/04/24 12:14:15;;;;;;;7.55;2.95;;;;;;;7.29;62.87;95779.44;2243390;26;20830;-68
2024/04/24 12:15:17;;;;;;;6.45;3.55;;;;;;;7.21;63.34;95790.13;2239512;26;20390;-68
2024/04/24 12:16:19;;;;;;;7.45;2.67;;;;;;;6.87;63.36;95781.28;2235824;26;20313;-68
2024/04/24 12:17:22;;;;;;;6.80;2.90;;;;;;;6.94;63.69;95781.84;2237477;26;20206;-68
2024/04/24 12:18:24;;;;;;;4.85;3.08;;;;;;;6.79;63.19;95785.94;2234820;26;20219;-68
2024/04/24 12:19:26;;;;;;;6.55;3.40;;;;;;;6.80;63.44;95779.84;2232677;26;20225;-68
2024/04/24 12:20:28;;;;;;;4.63;2.90;;;;;;;6.77;63.16;95783.41;2232072;26;20265;-68
2024/04/24 12:21:29;;;;;;;4.10;2.25;;;;;;;6.48;62.84;95779.47;2234127;26;20249;-68
2024/04/24 12:22:31;;;;;;;3.95;2.30;;;;;;;6.32;63.49;95774.06;2234985;26;20577;-68
2024/04/24 12:23:33;;;;;;;5.50;3.08;;;;;;;6.38;63.65;95764.28;2236110;26;20258;-68
2024/04/24 12:24:34;;;;;;;4.65;2.80;;;;;;;6.38;64.09;95768.63;2236113;26;20653;-68
2024/04/24 12:25:37;;;;;;;4.80;2.67;;;;;;;6.42;64.94;95762.41;2236585;26;20785;-68
2024/04/24 12:26:38;;;;;;;5.40;2.97;;;;;;;6.79;64.60;95762.59;2235849;26;20285;-68
2024/04/24 12:27:40;;;;;;;6.25;2.35;;;;;;;6.62;64.50;95760.72;2237422;26;20556;-68
2024/04/24 12:28:42;;;;;;;6.72;3.15;;;;;;;6.59;65.03;95764.31;2235241;26;20261;-68
2024/04/24 12:29:43;;;;;;;5.45;3.35;;;;;;;6.29;65.32;95763.84;2234617;26;20219;-68
2024/04/24 12:30:46;;;;;;;11.30;3.72;;;;;;;6.04;66.22;95764.84;2235375;26;20269;-68
2024/04/24 12:31:47;;;;;;;13.27;7.90;;;;;;;5.97;66.03;95763.38;2232819;26;20258;-68
2024/04/24 12:32:49;;;;;;;10.77;5.72;;;;;;;5.82;65.73;95770.84;2233867;26;20215;-68
2024/04/24 12:33:50;;;;;;;6.85;3.80;;;;;;;5.58;66.54;95761.47;2235882;26;20220;-68
2024/04/24 12:34:52;;;;;;;60.03;28.50;;;;;;;5.57;67.48;95765.78;2231651;26;20271;-68
2024/04/24 12:35:54;;;;;;;84.95;33.33;;;;;;;5.62;67.65;95770.81;2233788;26;20615;-68
2024/04/24 12:36:55;;;;;;;47.60;20.00;;;;;;;5.53;67.09;95775.41;2235479;26;20301;-68
2024/04/24 12:37:57;;;;;;;12.40;5.47;;;;;;;5.39;66.71;95770.78;2235760;26;20219;-68
2024/04/24 12:38:59;;;;;;;51.40;20.98;;;;;;;5.38;66.89;95771.69;2236715;26;20223;-68
2024/04/24 13:44:40;;;;;;;2.67;1.77;;;;;;;2.52;96.18;95793.72;2289043;25;20610;-64
2024/04/24 13:45:43;;;;;;;2.45;1.60;;;;;;;2.67;95.50;95791.66;2282891;25;20311;-65
2024/04/24 13:46:44;;;;;;;5.18;1.70;;;;;;;2.97;96.42;95794.25;2269977;25;20244;-65
2024/04/24 13:47:46;;;;;;;2.53;1.92;;;;;;;3.18;95.01;95790.22;2267977;26;20266;-65
2024/04/24 13:48:47;;;;;;;3.67;1.45;;;;;;;3.50;95.79;95791.00;2265553;26;20647;-65
2024/04/24 13:49:49;;;;;;;2.50;1.70;;;;;;;3.72;94.47;95791.16;2263256;26;20551;-65
2024/04/24 13:50:51;;;;;;;6.22;1.42;;;;;;;3.82;94.04;95787.44;2271709;26;20932;-65
2024/04/24 13:51:53;;;;;;;2.17;1.42;;;;;;;3.84;93.25;95788.22;2264286;26;20245;-65
2024/04/24 13:52:55;;;;;;;2.63;1.42;;;;;;;4.14;92.57;95780.38;2255074;26;20555;-67
2024/04/24 13:53:57;;;;;;;2.08;1.15;;;;;;;4.08;91.58;95778.81;2250508;26;20221;-67
2024/04/24 13:54:58;;;;;;;2.85;2.00;;;;;;;4.50;91.80;95779.19;2265123;26;20266;-67
2024/04/24 13:56:02;;;;;;;2.00;1.15;;;;;;;4.74;90.77;95774.91;2261527;26;21198;-67
2024/04/24 13:57:04;;;;;;;5.40;1.30;;;;;;;4.65;90.13;95781.22;2266413;26;20213;-67
2024/04/24 13:58:06;;;;;;;2.80;1.40;;;;;;;5.31;89.35;95774.56;2267051;26;20270;-67
2024/04/24 13:59:07;;;;;;;2.78;1.45;;;;;;;5.84;86.36;95773.38;2267665;26;20256;-67
2024/04/24 14:00:09;;;;;;;1.73;0.90;;;;;;;6.04;84.92;95770.03;2265789;26;20219;-67
2024/04/24 14:01:11;;;;;;;2.13;1.30;;;;;;;6.12;85.04;95764.53;2263674;26;20213;-67
2024/04/24 14:02:12;;;;;;;1.60;1.02;;;;;;;6.23;83.23;95761.50;2266577;26;20231;-67
2024/04/24 14:03:14;;;;;;;2.22;1.35;;;;;;;6.40;80.70;95760.78;2266224;26;20215;-68
2024/04/24 14:04:16;;;;;;;5.63;2.75;;;;;;;6.80;79.60;95757.31;2269725;26;20262;-68
2024/04/24 14:05:18;;;;;;;7.05;4.15;;;;;;;6.65;79.73;95764.03;2268647;26;20220;-68
2024/04/24 14:06:20;;;;;;;3.15;1.85;;;;;;;6.79;79.42;95754.78;2266348;26;20536;-67
2024/04/24 14:07:21;;;;;;;14.55;7.40;;;;;;;6.21;79.96;95759.81;2262800;26;20666;-68
2024/04/24 14:08:23;;;;;;;8.52;3.85;;;;;;;6.00;79.50;95747.72;2261345;26;20217;-68
2024/04/24 14:09:25;;;;;;;2.05;1.10;;;;;;;5.78;79.44;95748.56;2260572;26;20258;-68
2024/04/24 14:10:27;;;;;;;6.32;1.60;;;;;;;6.58;82.00;95751.38;2264301;26;20602;-68
2024/04/24 14:11:28;;;;;;;6.63;3.92;;;;;;;7.28;78.73;95738.78;2268155;26;20248;-68
2024/04/24 14:12:31;;;;;;;4.07;2.45;;;;;;;7.48;76.05;95743.88;2266136;26;20290;-68
2024/04/24 14:13:33;;;;;;;7.30;4.60;;;;;;;7.78;77.71;95739.91;2264529;26;20221;-68
2024/04/24 14:14:35;;;;;;;4.78;2.55;;;;;;;7.88;77.23;95743.75;2265386;26;20343;-68
2024/04/24 14:15:36;;;;;;;7.18;4.03;;;;;;;7.96;74.62;95745.97;2264957;26;20225;-68
2024/04/24 14:16:38;;;;;;;4.05;1.48;;;;;;;8.27;73.74;95744.47;2262350;26;20253;-67
2024/04/24 14:17:42;;;;;;;2.50;1.30;;;;;;;8.22;74.91;95738.66;2265488;26;20232;-67
2024/04/24 14:18:44;;;;;;;1.77;1.00;;;;;;;7.73;73.52;95737.53;2266616;26;20212;-67
2024/04/24 14:19:46;;;;;;;3.50;1.40;;;;;;;7.95;71.54;95733.91;2270213;26;20226;-67
2024/04/24 14:20:47;;;;;;;3.45;1.75;;;;;;;8.27;71.28;95729.69;2269542;26;20954;-67
2024/04/24 14:21:49;;;;;;;2.70;1.50;;;;;;;7.82;71.56;95725.84;2266089;26;20299;-67
2024/04/24 14:22:51;;;;;;;3.45;1.40;;;;;;;8.73;72.18;95725.72;2261079;26;20320;-67
2024/04/24 14:23:52;;;;;;;2.03;1.10;;;;;;;9.25;68.11;95727.31;2271573;26;20212;-67
2024/04/24 14:24:54;;;;;;;1.98;1.10;;;;;;;9.78;67.61;95717.47;2270013;26;20224;-67
2024/04/24 14:25:56;;;;;;;4.07;1.50;;;;;;;9.66;67.55;95718.16;2272555;26;20215;-66
2024/04/24 14:26:57;;;;;;;2.58;1.35;;;;;;;9.26;68.89;95715.97;2269582;26;20289;-67
2024/04/24 14:27:59;;;;;;;3.22;2.10;;;;;;;8.77;70.98;95715.06;2266817;26;20247;-67
2024/04/24 14:29:00;;;;;;;3.15;1.58;;;;;;;8.96;69.38;95717.56;2264415;26;20214;-67
2024/04/24 14:30:02;;;;;;;4.57;2.13;;;;;;;9.07;68.53;95719.56;2265387;26;20702;-67
2024/04/24 14:31:04;;;;;;;2.47;1.70;;;;;;;9.26;68.43;95709.00;2261341;26;20627;-67
2024/04/24 14:32:06;;;;;;;2.70;1.48;;;;;;;8.68;67.64;95707.72;2258624;26;20322;-67
2024/04/24 14:33:08;;;;;;;4.97;1.40;;;;;;;7.90;70.22;95713.31;2248073;26;20218;-67
2024/04/24 14:34:10;;;;;;;3.08;1.40;;;;;;;7.11;69.84;95706.66;2249259;26;20313;-67
2024/04/24 14:35:12;;;;;;;2.85;1.55;;;;;;;6.85;71.39;95711.25;2264097;26;20205;-67
2024/04/24 14:36:15;;;;;;;3.33;1.60;;;;;;;7.68;71.67;95709.16;2265744;26;21045;-67
2024/04/24 14:37:17;;;;;;;4.30;1.52;;;;;;;8.20;68.71;95704.09;2267746;26;20939;-67
2024/04/24 14:38:22;;;;;;;3.30;1.45;;;;;;;8.35;69.29;95713.72;2264438;26;20601;-67
2024/04/24 14:39:24;;;;;;;3.67;1.55;;;;;;;8.68;66.17;95709.50;2264592;26;20232;-67
2024/04/24 14:40:25;;;;;;;3.08;1.70;;;;;;;8.54;66.98;95699.81;2263669;26;20264;-67
2024/04/24 14:41:27;;;;;;;3.70;1.88;;;;;;;8.31;67.80;95692.22;2263492;26;20247;-67
2024/04/24 14:42:28;;;;;;;2.90;1.60;;;;;;;7.99;68.81;95697.28;2265324;26;21231;-67
2024/04/24 14:43:30;;;;;;;2.92;1.50;;;;;;;7.75;69.42;95701.09;2250397;26;20226;-67
2024/04/24 14:44:32;;;;;;;4.82;2.00;;;;;;;7.44;70.56;95705.13;2249921;26;20226;-67
2024/04/24 14:45:34;;;;;;;3.78;1.83;;;;;;;7.18;68.65;95702.84;2263948;26;20221;-67
2024/04/24 14:46:37;;;;;;;4.35;2.00;;;;;;;6.85;67.80;95702.63;2261997;26;20289;-67
2024/04/24 14:47:39;;;;;;;3.53;1.30;;;;;;;7.00;68.89;95695.91;2262042;26;20783;-68
2024/04/24 14:48:40;;;;;;;3.78;1.33;;;;;;;6.89;67.80;95698.16;2263432;26;20212;-67
2024/04/24 14:49:43;;;;;;;2.45;1.40;;;;;;;6.66;67.20;95710.38;2258761;26;20259;-67
2024/04/24 14:50:45;;;;;;;2.95;1.50;;;;;;;6.60;66.95;95703.72;2264409;26;20256;-66
2024/04/24 14:51:47;;;;;;;4.45;1.75;;;;;;;7.60;66.48;95700.88;2263634;26;20252;-67
2024/04/24 14:52:48;;;;;;;8.82;1.75;;;;;;;8.28;67.78;95696.75;2252261;26;20217;-66
2024/04/24 14:53:50;;;;;;;3.33;1.60;;;;;;;8.47;67.57;95709.69;2256594;26;20303;-67
2024/04/24 14:54:52;;;;;;;2.60;1.20;;;;;;;8.57;68.30;95708.28;2264908;26;20233;-67
2024/04/24 14:55:53;;;;;;;5.88;1.42;;;;;;;8.39;67.03;95707.41;2259506;26;20585;-67
2024/04/24 14:56:55;;;;;;;2.60;1.30;;;;;;;8.18;65.46;95701.56;2258737;26;20253;-67
2024/04/24 14:57:57;;;;;;;2.35;1.30;;;;;;;7.88;66.66;95709.13;2259462;26;20263;-67
2024/04/24 14:58:58;;;;;;;2.30;1.30;;;;;;;7.79;66.72;95706.03;2255689;26;20213;-67
2024/04/24 15:00:00;;;;;;;5.13;1.50;;;;;;;8.11;67.65;95702.78;2257987;26;20261;-68
2024/04/24 15:01:04;;;;;;;4.35;1.27;;;;;;;7.87;67.38;95700.47;2257612;26;20213;-67
2024/04/24 15:02:06;;;;;;;4.40;2.28;;;;;;;7.71;67.60;95704.72;2257750;26;20252;-67
2024/04/24 15:03:08;;;;;;;8.02;2.38;;;;;;;7.63;67.68;95702.50;2244970;26;20215;-67
2024/04/24 15:04:10;;;;;;;3.90;1.95;;;;;;;7.61;67.05;95696.56;2244458;26;20222;-67
2024/04/24 15:05:12;;;;;;;3.72;2.05;;;;;;;7.49;67.36;95698.81;2260176;26;20824;-67
2024/04/24 15:06:14;;;;;;;4.07;1.23;;;;;;;7.39;66.72;95702.78;2260520;26;20226;-67
2024/04/24 15:07:16;;;;;;;2.40;1.20;;;;;;;7.54;67.77;95698.56;2258631;26;20258;-67
2024/04/24 15:08:17;;;;;;;3.75;1.20;;;;;;;7.75;67.45;95695.88;2260664;26;20260;-67
2024/04/24 15:09:19;;;;;;;3.83;1.30;;;;;;;7.42;64.27;95689.63;2262302;26;20335;-68
2024/04/24 15:10:21;;;;;;;2.78;1.13;;;;;;;7.52;63.23;95677.03;2260416;26;20314;-67
2024/04/24 15:11:22;;;;;;;4.32;1.80;;;;;;;8.16;63.69;95687.78;2260309;26;20379;-67
2024/04/24 15:12:24;;;;;;;7.85;1.60;;;;;;;8.13;64.75;95691.38;2258822;26;20220;-67
2024/04/24 15:13:26;;;;;;;2.30;1.20;;;;;;;8.04;62.82;95685.78;2261136;26;20308;-67
2024/04/24 15:14:27;;;;;;;4.55;1.20;;;;;;;9.09;62.62;95694.28;2263466;26;20974;-67
2024/04/24 15:15:29;;;;;;;7.20;1.33;;;;;;;9.22;61.67;95693.59;2262948;26;20653;-67
2024/04/24 15:16:31;;;;;;;2.45;1.02;;;;;;;9.62;61.19;95686.19;2255006;26;20356;-67
2024/04/24 15:17:34;;;;;;;5.85;2.00;;;;;;;10.19;59.91;95682.94;2253527;26;20260;-67
2024/04/24 15:18:36;;;;;;;3.63;1.20;;;;;;;10.23;58.42;95684.47;2261058;26;20680;-67
2024/04/24 15:19:37;;;;;;;4.35;1.30;;;;;;;9.95;58.36;95686.06;2259837;26;20234;-68
2024/04/24 15:20:42;;;;;;;6.88;1.45;;;;;;;9.19;58.51;95686.78;2262799;26;20221;-66
2024/04/24 15:21:44;;;;;;;3.00;0.82;;;;;;;8.82;59.65;95693.97;2244173;26;20260;-68
2024/04/24 15:22:45;;;;;;;2.80;0.98;;;;;;;8.36;61.28;95697.19;2244921;26;20213;-67
2024/04/24 15:23:47;;;;;;;7.20;1.00;;;;;;;8.26;61.94;95701.19;2260793;26;20227;-68
2024/04/24 16:29:51;;;;;;;5.32;3.13;;;;;;;1.21;100.00;95763.44;2226653;26;20579;-68
2024/04/24 16:30:53;;;;;;;7.10;2.95;;;;;;;1.85;100.00;95750.78;2221765;26;20223;-69
2024/04/24 16:31:55;;;;;;;4.20;2.58;;;;;;;2.23;98.53;95750.69;2204065;26;20245;-68
2024/04/24 16:32:56;;;;;;;3.33;2.28;;;;;;;2.69;96.03;95741.75;2201449;26;20225;-68
2024/04/24 16:33:58;;;;;;;6.82;3.28;;;;;;;3.22;94.13;95728.13;2201540;26;20263;-68
2024/04/24 16:35:01;;;;;;;2.90;1.70;;;;;;;3.29;92.11;95744.31;2201777;26;20541;-69
2024/04/24 16:36:06;;;;;;;8.07;2.70;;;;;;;3.68;90.80;95743.97;2201326;26;20221;-68
2024/04/24 16:37:07;;;;;;;6.93;3.92;;;;;;;3.83;89.41;95728.84;2201553;27;20243;-69
2024/04/24 16:38:09;;;;;;;3.47;1.48;;;;;;;4.05;87.20;95727.25;2201666;26;20260;-68
2024/04/24 16:39:10;;;;;;;3.92;1.73;;;;;;;4.19;86.97;95731.09;2201738;26;20631;-68
2024/04/24 16:40:15;;;;;;;5.47;2.95;;;;;;;4.47;86.05;95728.44;2201623;26;20212;-68
2024/04/24 16:41:17;;;;;;;6.60;4.00;;;;;;;4.54;85.71;95726.47;2201128;26;20568;-68
2024/04/24 16:42:18;;;;;;;8.57;3.58;;;;;;;4.99;85.62;95725.69;2201661;26;20225;-68
2024/04/24 16:43:22;;;;;;;2.28;1.10;;;;;;;4.72;84.03;95733.56;2201469;26;20259;-68
2024/04/24 16:44:23;;;;;;;3.22;1.90;;;;;;;4.71;84.12;95726.72;2201738;26;20213;-68
